createdAt,value
2018-11-22T00:02:12.463Z,25.93
2018-11-22T00:04:40.570Z,25.57
2018-11-22T00:07:08.622Z,26.43
2018-11-22T00:09:36.743Z,32.30
2018-11-22T00:12:04.983Z,29.93
2018-11-22T00:14:33.138Z,28.90
2018-11-22T00:17:01.211Z,31.30
2018-11-22T00:19:29.304Z,34.43
2018-11-22T00:21:57.462Z,32.50
2018-11-22T00:24:25.821Z,37.13
2018-11-22T00:26:54.008Z,35.83
2018-11-22T12:18:06.850Z,39.20
2018-11-22T12:20:35.003Z,41.53
2018-11-22T12:23:03.290Z,37.50
2018-11-22T12:25:31.518Z,39.93
2018-11-22T12:27:59.647Z,37.93
2018-11-22T12:30:27.745Z,41.70
2018-11-22T12:32:55.891Z,39.63
2018-11-22T12:35:24.066Z,32.97
2018-11-22T12:37:52.299Z,41.83
2018-11-22T12:40:20.432Z,35.87
2018-11-22T12:42:48.537Z,36.10
2018-11-22T12:45:16.634Z,36.27
2018-11-22T12:47:44.716Z,39.00
2018-11-22T12:50:13.019Z,39.73
2018-11-22T12:52:41.375Z,32.70
2018-11-22T12:55:09.542Z,35.07
2018-11-22T12:57:37.751Z,33.83
2018-11-22T13:00:09.005Z,34.33
2018-11-22T13:02:37.158Z,32.63
2018-11-22T13:05:07.270Z,35.87
2018-11-22T13:07:35.374Z,27.67
2018-11-22T13:10:05.082Z,29.03
2018-11-22T13:12:33.226Z,33.73
2018-11-22T13:15:01.362Z,28.17
2018-11-22T13:17:30.506Z,32.83
2018-11-22T13:19:58.681Z,29.17
2018-11-22T13:22:26.836Z,33.43
2018-11-22T13:24:54.973Z,33.77
2018-11-22T13:27:23.146Z,31.07
2018-11-22T13:29:51.403Z,34.43
2018-11-22T13:32:21.463Z,32.60
2018-11-22T13:34:47.655Z,34.47
2018-11-22T13:37:15.810Z,34.63
2018-11-22T13:39:43.978Z,36.00
2018-11-22T13:42:12.091Z,36.83
2018-11-22T13:44:40.279Z,36.23
2018-11-22T13:47:08.431Z,33.63
2018-11-22T13:49:36.625Z,35.73
2018-11-22T13:52:06.568Z,37.03
2018-11-22T13:54:34.964Z,38.67
2018-11-22T13:57:03.210Z,39.00
2018-11-22T13:59:31.458Z,37.77
2018-11-22T14:01:59.614Z,39.90
2018-11-22T14:04:27.943Z,39.23
2018-11-22T14:06:56.216Z,35.87
2018-11-22T14:09:24.394Z,38.67
2018-11-22T14:11:52.548Z,32.43
2018-11-22T14:14:20.679Z,37.40
2018-11-22T14:16:48.879Z,33.70
2018-11-22T14:19:17.004Z,30.80
2018-11-22T14:21:45.146Z,36.17
2018-11-22T14:24:13.292Z,33.43
2018-11-22T14:26:45.645Z,34.60
2018-11-22T14:29:13.813Z,36.20
2018-11-22T14:31:42.034Z,28.13
2018-11-22T14:34:10.166Z,33.63
2018-11-22T14:36:38.437Z,33.03
2018-11-22T14:39:08.396Z,28.23
2018-11-22T14:41:41.140Z,34.17
2018-11-22T14:44:14.538Z,38.77
2018-11-22T14:46:52.951Z,33.10
2018-11-22T14:49:22.511Z,38.57
2018-11-22T14:51:58.973Z,32.33
2018-11-22T14:54:27.077Z,36.70
2018-11-22T14:56:55.218Z,34.97
2018-11-22T14:59:23.763Z,50.33
2018-11-22T15:01:53.245Z,38.67
2018-11-22T15:04:24.786Z,37.80
2018-11-22T15:06:56.715Z,35.23
2018-11-22T15:09:30.791Z,30.53
2018-11-22T15:11:59.256Z,37.87
2018-11-22T15:14:27.407Z,36.17
2018-11-22T15:16:55.472Z,34.70
2018-11-22T15:19:23.636Z,35.43
2018-11-22T15:21:52.120Z,33.70
2018-11-22T15:24:20.411Z,37.07
2018-11-22T15:26:49.026Z,36.77
2018-11-22T15:29:17.162Z,37.00
2018-11-22T15:31:45.293Z,34.77
2018-11-22T15:34:18.218Z,37.50
2018-11-22T15:36:46.338Z,32.87
2018-11-22T15:39:14.534Z,36.53
2018-11-22T15:41:42.791Z,37.87
2018-11-22T15:44:10.904Z,33.93
2018-11-22T15:46:39.093Z,37.67
2018-11-22T15:49:07.406Z,37.93
2018-11-22T15:51:35.560Z,38.67
2018-11-22T15:54:04.092Z,34.50
2018-11-22T15:56:32.207Z,36.03
2018-11-22T15:59:00.327Z,34.63
2018-11-22T16:01:28.437Z,34.97
2018-11-22T16:03:56.725Z,28.77
2018-11-22T16:06:24.878Z,33.03
2018-11-22T16:08:53.035Z,31.13
2018-11-22T16:11:21.230Z,33.07
2018-11-22T16:13:49.525Z,33.33
2018-11-22T16:16:17.653Z,34.83
2018-11-22T16:18:45.790Z,38.40
2018-11-22T16:21:13.925Z,32.30
2018-11-22T16:23:42.299Z,32.50
2018-11-22T16:26:10.514Z,35.57
2018-11-22T16:28:38.666Z,36.57
2018-11-22T16:31:06.794Z,33.83
2018-11-22T16:33:34.931Z,37.63
2018-11-22T16:36:03.229Z,41.50
2018-11-22T16:38:32.365Z,33.17
2018-11-22T16:41:00.976Z,35.93
2018-11-22T16:43:29.108Z,35.50
2018-11-22T16:45:57.401Z,39.33
2018-11-22T16:48:25.572Z,36.17
2018-11-22T16:50:53.785Z,44.70
2018-11-22T16:53:21.997Z,39.20
2018-11-22T16:55:50.216Z,44.17
2018-11-22T16:58:19.201Z,38.50
2018-11-22T17:00:47.330Z,36.53
2018-11-22T17:03:15.580Z,37.63
2018-11-22T17:05:43.734Z,37.80
2018-11-22T17:08:11.870Z,37.43
2018-11-22T17:10:40.133Z,39.10
2018-11-22T17:13:08.575Z,41.53
2018-11-22T17:15:36.806Z,42.37
2018-11-22T17:18:05.936Z,41.10
2018-11-22T17:20:34.042Z,43.73
2018-11-22T17:23:02.304Z,43.13
2018-11-22T17:25:30.410Z,40.60
2018-11-22T17:27:58.511Z,40.13
2018-11-22T17:30:26.675Z,41.07
2018-11-22T17:32:54.943Z,38.83
2018-11-22T17:35:23.066Z,42.07
2018-11-22T17:37:51.414Z,41.80
2018-11-22T17:40:19.642Z,41.97
2018-11-22T17:42:47.778Z,42.07
2018-11-22T17:45:16.030Z,38.37
2018-11-22T17:47:44.311Z,40.93
2018-11-22T17:50:13.372Z,37.03
2018-11-22T17:52:42.198Z,37.30
2018-11-22T17:55:11.982Z,36.23
2018-11-22T17:57:40.215Z,40.20
2018-11-22T18:00:15.442Z,38.67
2018-11-22T18:02:43.795Z,37.23
2018-11-22T18:05:12.016Z,37.60
2018-11-22T18:07:40.397Z,35.13
2018-11-22T18:10:12.551Z,35.20
2018-11-22T18:12:41.165Z,39.60
2018-11-22T18:15:11.950Z,39.80
2018-11-22T18:17:40.331Z,42.47
2018-11-22T18:20:10.822Z,39.57
2018-11-22T18:22:39.037Z,38.97
2018-11-22T18:25:08.815Z,40.80
2018-11-22T18:27:37.075Z,36.77
2018-11-22T18:30:07.853Z,38.70
2018-11-22T18:32:36.136Z,39.07
2018-11-22T18:35:04.843Z,34.67
2018-11-22T18:37:32.988Z,43.00
2018-11-22T18:42:35.810Z,42.80
2018-11-22T18:45:05.650Z,38.87
2018-11-22T18:47:33.819Z,42.23
2018-11-22T18:50:15.467Z,38.63
2018-11-22T18:52:37.908Z,39.77
2018-11-22T18:55:06.629Z,41.00
2018-11-22T18:57:34.779Z,36.53
2018-11-22T19:00:03.588Z,41.73
2018-11-22T19:02:31.880Z,40.27
2018-11-22T19:05:00.035Z,43.97
2018-11-22T19:07:28.169Z,38.40
2018-11-22T19:09:56.419Z,41.50
2018-11-22T19:12:24.573Z,41.63
2018-11-22T19:14:52.749Z,42.23
2018-11-22T19:17:20.908Z,43.00
2018-11-22T19:19:49.048Z,41.77
2018-11-22T19:22:17.188Z,47.67
2018-11-22T19:24:45.356Z,43.33
2018-11-22T19:27:13.816Z,45.73
2018-11-22T19:29:42.039Z,42.17
2018-11-22T19:32:10.253Z,42.23
2018-11-22T19:34:38.367Z,49.73
2018-11-22T19:37:06.725Z,42.93
2018-11-22T19:39:35.247Z,45.97
2018-11-22T19:42:03.619Z,43.57
2018-11-22T19:44:31.815Z,46.30
2018-11-22T19:47:00.015Z,46.40
2018-11-22T19:49:28.457Z,43.40
2018-11-22T19:51:56.641Z,44.73
2018-11-22T19:54:24.915Z,46.07
2018-11-22T19:56:53.249Z,43.00
2018-11-22T19:59:21.462Z,41.93
2018-11-22T20:01:49.650Z,46.93
2018-11-22T20:04:17.772Z,39.70
2018-11-22T20:06:51.202Z,44.80
2018-11-22T20:09:19.380Z,44.00
2018-11-22T20:11:47.664Z,39.77
2018-11-22T20:14:15.884Z,47.67
2018-11-22T20:16:44.139Z,44.10
2018-11-22T20:19:12.289Z,48.83
2018-11-22T20:21:40.467Z,40.40
2018-11-22T20:24:08.674Z,39.67
2018-11-22T20:26:36.831Z,42.97
2018-11-22T20:29:05.077Z,48.07
2018-11-22T20:31:33.437Z,44.77
2018-11-22T20:34:01.706Z,47.40
2018-11-22T20:36:29.850Z,46.60
2018-11-22T20:38:57.997Z,37.93
2018-11-22T20:41:26.151Z,39.70
2018-11-22T20:43:54.326Z,44.37
2018-11-22T20:46:22.702Z,45.20
2018-11-22T20:48:51.006Z,45.37
2018-11-22T20:51:19.129Z,41.60
2018-11-22T20:53:47.280Z,44.90
2018-11-22T20:56:15.383Z,48.97
2018-11-22T20:58:43.512Z,48.07
2018-11-22T21:01:11.684Z,42.30
2018-11-22T21:03:40.045Z,46.20
2018-11-22T21:06:08.225Z,38.63
2018-11-22T21:08:36.366Z,45.53
2018-11-22T21:11:04.576Z,48.33
2018-11-22T21:13:32.705Z,47.80
2018-11-22T21:16:00.972Z,48.33
2018-11-22T21:18:29.250Z,44.00
2018-11-22T21:20:57.386Z,40.57
2018-11-22T21:23:25.564Z,43.23
2018-11-22T21:25:53.677Z,44.20
2018-11-22T21:28:21.912Z,41.60
2018-11-22T21:30:50.330Z,45.17
2018-11-22T21:33:18.456Z,44.40
2018-11-22T21:35:46.661Z,45.57
2018-11-22T21:38:14.913Z,47.53
2018-11-22T21:40:43.034Z,46.57
2018-11-22T21:43:11.305Z,45.07
2018-11-22T21:45:39.540Z,45.20
2018-11-22T21:48:07.704Z,48.73
2018-11-22T21:50:35.844Z,48.30
2018-11-22T21:53:04.285Z,47.03
2018-11-22T21:55:32.597Z,43.27
2018-11-22T21:58:00.839Z,45.13
2018-11-22T22:00:31.212Z,43.33
2018-11-22T22:02:59.531Z,43.07
2018-11-22T22:05:27.814Z,45.63
2018-11-22T22:07:55.937Z,50.20
2018-11-22T22:10:24.157Z,47.20
2018-11-22T22:12:52.297Z,47.77
2018-11-22T22:15:20.604Z,36.80
2018-11-22T22:17:48.718Z,43.60
2018-11-22T22:20:17.017Z,44.80
2018-11-22T22:22:45.146Z,42.67
2018-11-22T22:25:13.430Z,44.77
2018-11-22T22:27:41.980Z,48.07
2018-11-22T22:30:11.619Z,44.03
2018-11-22T22:32:39.857Z,50.93
2018-11-22T22:35:08.051Z,44.37
2018-11-22T22:37:36.153Z,46.37
2018-11-22T22:40:05.974Z,41.87
2018-11-22T22:42:34.063Z,45.63
2018-11-22T22:45:02.206Z,48.10
2018-11-22T22:47:30.435Z,43.50
2018-11-22T22:49:58.623Z,45.33
2018-11-22T22:52:26.831Z,47.63
2018-11-22T22:54:55.005Z,45.27
2018-11-22T22:57:23.159Z,46.43
2018-11-22T22:59:51.407Z,47.93
2018-11-22T23:02:19.558Z,42.97
2018-11-22T23:04:47.740Z,45.63
2018-11-22T23:07:15.830Z,50.20
2018-11-22T23:09:43.982Z,45.23
2018-11-22T23:12:12.228Z,50.30
2018-11-22T23:14:40.349Z,52.17
2018-11-22T23:17:09.381Z,56.50
2018-11-22T23:19:36.674Z,49.23
2018-11-22T23:22:05.069Z,49.57
2018-11-22T23:24:33.207Z,49.87
2018-11-22T23:27:01.338Z,43.80
2018-11-22T23:29:29.457Z,45.93
2018-11-22T23:31:57.732Z,46.30
2018-11-22T23:34:25.892Z,48.37
2018-11-22T23:36:53.993Z,45.47
2018-11-22T23:39:22.122Z,44.03
2018-11-22T23:41:50.249Z,40.07
2018-11-22T23:44:18.398Z,38.33
2018-11-22T23:46:53.187Z,43.53
2018-11-22T23:49:21.410Z,40.77
2018-11-22T23:51:49.535Z,43.60
2018-11-22T23:54:17.788Z,43.47
2018-11-22T23:56:45.921Z,39.37
2018-11-22T23:59:14.030Z,42.13
